sensor_id;sensor_type;location;lat;lon;timestamp;temperature;humidity
51637;DHT22;37713;53.254;6.460;2022-10-30T00:00:18;12.30;99.90
51637;DHT22;37713;53.254;6.460;2022-10-30T00:02:46;12.50;99.90
51637;DHT22;37713;53.254;6.460;2022-10-30T00:05:12;12.30;99.90
51637;DHT22;37713;53.254;6.460;2022-10-30T00:07:38;12.60;99.90
51637;DHT22;37713;53.254;6.460;2022-10-30T00:10:04;12.30;99.90
51637;DHT22;37713;53.254;6.460;2022-10-30T00:12:30;12.60;99.90
51637;DHT22;37713;53.254;6.460;2022-10-30T00:14:56;12.60;99.90
51637;DHT22;37713;53.254;6.460;2022-10-30T00:17:22;12.30;99.90
51637;DHT22;37713;53.254;6.460;2022-10-30T00:19:47;12.50;99.90
51637;DHT22;37713;53.254;6.460;2022-10-30T00:22:13;12.60;99.90
51637;DHT22;37713;53.254;6.460;2022-10-30T00:24:39;12.50;99.90
51637;DHT22;37713;53.254;6.460;2022-10-30T00:27:04;12.20;99.90
51637;DHT22;37713;53.254;6.460;2022-10-30T00:29:30;12.50;99.90
51637;DHT22;37713;53.254;6.460;2022-10-30T00:31:56;12.40;99.90
51637;DHT22;37713;53.254;6.460;2022-10-30T00:34:22;12.60;99.90
51637;DHT22;37713;53.254;6.460;2022-10-30T00:36:47;12.40;99.90
51637;DHT22;37713;53.254;6.460;2022-10-30T00:39:13;12.30;99.90
51637;DHT22;37713;53.254;6.460;2022-10-30T00:41:39;12.40;99.90
51637;DHT22;37713;53.254;6.460;2022-10-30T00:47:15;12.30;99.90
51637;DHT22;37713;53.254;6.460;2022-10-30T00:50:32;12.70;99.90
51637;DHT22;37713;53.254;6.460;2022-10-30T00:52:45;12.50;99.90
51637;DHT22;37713;53.254;6.460;2022-10-30T00:55:49;12.50;99.90
51637;DHT22;37713;53.254;6.460;2022-10-30T00:58:08;12.70;99.90
51637;DHT22;37713;53.254;6.460;2022-10-30T01:00:36;12.80;99.90
51637;DHT22;37713;53.254;6.460;2022-10-30T01:03:04;12.40;99.90
51637;DHT22;37713;53.254;6.460;2022-10-30T01:05:31;12.40;99.90
51637;DHT22;37713;53.254;6.460;2022-10-30T01:07:57;12.40;99.90
51637;DHT22;37713;53.254;6.460;2022-10-30T01:10:24;12.60;99.90
51637;DHT22;37713;53.254;6.460;2022-10-30T01:12:51;12.40;99.90
51637;DHT22;37713;53.254;6.460;2022-10-30T01:15:22;12.70;99.90
51637;DHT22;37713;53.254;6.460;2022-10-30T01:23:01;12.40;99.90
51637;DHT22;37713;53.254;6.460;2022-10-30T01:25:50;12.60;99.90
51637;DHT22;37713;53.254;6.460;2022-10-30T01:31:31;12.70;99.90
51637;DHT22;37713;53.254;6.460;2022-10-30T01:36:59;12.50;99.90
51637;DHT22;37713;53.254;6.460;2022-10-30T01:39:28;12.70;99.90
51637;DHT22;37713;53.254;6.460;2022-10-30T01:41:57;12.50;99.90
51637;DHT22;37713;53.254;6.460;2022-10-30T01:44:29;12.50;99.90
51637;DHT22;37713;53.254;6.460;2022-10-30T01:49:56;12.40;99.90
51637;DHT22;37713;53.254;6.460;2022-10-30T01:55:14;12.50;99.90
51637;DHT22;37713;53.254;6.460;2022-10-30T02:00:20;12.70;99.90
51637;DHT22;37713;53.254;6.460;2022-10-30T02:02:48;12.40;99.90
51637;DHT22;37713;53.254;6.460;2022-10-30T02:05:23;12.40;99.90
51637;DHT22;37713;53.254;6.460;2022-10-30T02:07:50;12.60;99.90
51637;DHT22;37713;53.254;6.460;2022-10-30T02:10:16;12.40;99.90
51637;DHT22;37713;53.254;6.460;2022-10-30T02:12:47;12.40;99.90
51637;DHT22;37713;53.254;6.460;2022-10-30T02:15:13;12.50;99.90
51637;DHT22;37713;53.254;6.460;2022-10-30T02:17:39;12.30;99.90
51637;DHT22;37713;53.254;6.460;2022-10-30T02:20:06;12.40;99.90
51637;DHT22;37713;53.254;6.460;2022-10-30T02:22:32;12.60;99.90
51637;DHT22;37713;53.254;6.460;2022-10-30T02:24:58;12.60;99.90
51637;DHT22;37713;53.254;6.460;2022-10-30T02:27:23;12.20;99.90
51637;DHT22;37713;53.254;6.460;2022-10-30T02:29:49;12.40;99.90
51637;DHT22;37713;53.254;6.460;2022-10-30T02:32:15;12.30;99.90
51637;DHT22;37713;53.254;6.460;2022-10-30T02:34:40;12.30;99.90
51637;DHT22;37713;53.254;6.460;2022-10-30T02:37:07;12.60;99.90
51637;DHT22;37713;53.254;6.460;2022-10-30T02:39:33;12.50;99.90
51637;DHT22;37713;53.254;6.460;2022-10-30T02:41:59;12.50;99.90
51637;DHT22;37713;53.254;6.460;2022-10-30T02:44:26;12.40;99.90
51637;DHT22;37713;53.254;6.460;2022-10-30T02:46:52;12.50;99.90
51637;DHT22;37713;53.254;6.460;2022-10-30T02:49:18;12.50;99.90
51637;DHT22;37713;53.254;6.460;2022-10-30T02:51:43;12.50;99.90
51637;DHT22;37713;53.254;6.460;2022-10-30T02:54:09;12.30;99.90
51637;DHT22;37713;53.254;6.460;2022-10-30T02:56:35;12.50;99.90
51637;DHT22;37713;53.254;6.460;2022-10-30T02:59:01;12.40;99.90
51637;DHT22;37713;53.254;6.460;2022-10-30T03:01:26;12.40;99.90
51637;DHT22;37713;53.254;6.460;2022-10-30T03:03:52;12.40;99.90
51637;DHT22;37713;53.254;6.460;2022-10-30T03:06:18;12.20;99.90
51637;DHT22;37713;53.254;6.460;2022-10-30T03:08:44;12.20;99.90
51637;DHT22;37713;53.254;6.460;2022-10-30T03:11:15;12.00;99.90
51637;DHT22;37713;53.254;6.460;2022-10-30T03:13:42;12.10;99.90
51637;DHT22;37713;53.254;6.460;2022-10-30T03:16:14;12.10;99.90
51637;DHT22;37713;53.254;6.460;2022-10-30T03:18:40;12.10;99.90
51637;DHT22;37713;53.254;6.460;2022-10-30T03:21:09;12.30;99.90
51637;DHT22;37713;53.254;6.460;2022-10-30T03:23:35;12.20;99.90
51637;DHT22;37713;53.254;6.460;2022-10-30T03:26:01;12.20;99.90
51637;DHT22;37713;53.254;6.460;2022-10-30T03:28:30;12.30;99.90
51637;DHT22;37713;53.254;6.460;2022-10-30T03:31:01;12.30;99.90
51637;DHT22;37713;53.254;6.460;2022-10-30T03:33:28;12.00;99.90
51637;DHT22;37713;53.254;6.460;2022-10-30T03:35:54;12.20;99.90
51637;DHT22;37713;53.254;6.460;2022-10-30T03:38:20;12.30;99.90
51637;DHT22;37713;53.254;6.460;2022-10-30T03:40:46;12.10;99.90
51637;DHT22;37713;53.254;6.460;2022-10-30T03:43:11;12.20;99.90
51637;DHT22;37713;53.254;6.460;2022-10-30T03:45:37;11.90;99.90
51637;DHT22;37713;53.254;6.460;2022-10-30T03:48:04;12.20;99.90
51637;DHT22;37713;53.254;6.460;2022-10-30T03:50:30;12.00;99.90
51637;DHT22;37713;53.254;6.460;2022-10-30T03:52:57;12.00;99.90
51637;DHT22;37713;53.254;6.460;2022-10-30T03:55:24;11.80;99.90
51637;DHT22;37713;53.254;6.460;2022-10-30T03:57:50;12.00;99.90
51637;DHT22;37713;53.254;6.460;2022-10-30T04:00:17;12.10;99.90
51637;DHT22;37713;53.254;6.460;2022-10-30T04:02:47;11.80;99.90
51637;DHT22;37713;53.254;6.460;2022-10-30T04:05:15;11.80;99.90
51637;DHT22;37713;53.254;6.460;2022-10-30T04:07:41;12.00;99.90
51637;DHT22;37713;53.254;6.460;2022-10-30T04:10:08;11.80;99.90
51637;DHT22;37713;53.254;6.460;2022-10-30T04:12:34;11.70;99.90
51637;DHT22;37713;53.254;6.460;2022-10-30T04:14:59;11.70;99.90
51637;DHT22;37713;53.254;6.460;2022-10-30T04:17:25;12.00;99.90
51637;DHT22;37713;53.254;6.460;2022-10-30T04:19:51;11.80;99.90
51637;DHT22;37713;53.254;6.460;2022-10-30T04:22:16;11.60;99.90
51637;DHT22;37713;53.254;6.460;2022-10-30T04:24:42;11.60;99.90
51637;DHT22;37713;53.254;6.460;2022-10-30T04:27:09;11.90;99.90
51637;DHT22;37713;53.254;6.460;2022-10-30T04:29:34;11.90;99.90
51637;DHT22;37713;53.254;6.460;2022-10-30T04:32:02;11.90;99.90
51637;DHT22;37713;53.254;6.460;2022-10-30T04:34:31;11.90;99.90
51637;DHT22;37713;53.254;6.460;2022-10-30T04:36:57;11.60;99.90
51637;DHT22;37713;53.254;6.460;2022-10-30T04:39:22;11.80;99.90
51637;DHT22;37713;53.254;6.460;2022-10-30T04:41:48;11.60;99.90
51637;DHT22;37713;53.254;6.460;2022-10-30T04:44:14;11.90;99.90
51637;DHT22;37713;53.254;6.460;2022-10-30T04:46:39;11.60;99.90
51637;DHT22;37713;53.254;6.460;2022-10-30T04:49:05;11.60;99.90
51637;DHT22;37713;53.254;6.460;2022-10-30T04:51:31;11.60;99.90
51637;DHT22;37713;53.254;6.460;2022-10-30T04:53:57;11.80;99.90
51637;DHT22;37713;53.254;6.460;2022-10-30T04:56:23;11.60;99.90
51637;DHT22;37713;53.254;6.460;2022-10-30T04:58:49;11.60;99.90
51637;DHT22;37713;53.254;6.460;2022-10-30T05:01:14;11.60;99.90
51637;DHT22;37713;53.254;6.460;2022-10-30T05:03:40;11.80;99.90
51637;DHT22;37713;53.254;6.460;2022-10-30T05:06:12;11.80;99.90
51637;DHT22;37713;53.254;6.460;2022-10-30T05:08:39;11.50;99.90
51637;DHT22;37713;53.254;6.460;2022-10-30T05:11:05;11.80;99.90
51637;DHT22;37713;53.254;6.460;2022-10-30T05:13:31;11.40;99.90
51637;DHT22;37713;53.254;6.460;2022-10-30T05:15:56;11.60;99.90
51637;DHT22;37713;53.254;6.460;2022-10-30T05:18:22;11.70;99.90
51637;DHT22;37713;53.254;6.460;2022-10-30T05:20:48;11.50;99.90
51637;DHT22;37713;53.254;6.460;2022-10-30T05:23:14;11.80;99.90
51637;DHT22;37713;53.254;6.460;2022-10-30T05:25:39;11.40;99.90
51637;DHT22;37713;53.254;6.460;2022-10-30T05:28:05;11.80;99.90
51637;DHT22;37713;53.254;6.460;2022-10-30T05:30:33;11.60;99.90
51637;DHT22;37713;53.254;6.460;2022-10-30T05:33:03;11.50;99.90
51637;DHT22;37713;53.254;6.460;2022-10-30T05:35:30;11.80;99.90
51637;DHT22;37713;53.254;6.460;2022-10-30T05:38:00;11.70;99.90
51637;DHT22;37713;53.254;6.460;2022-10-30T05:40:26;11.80;99.90
51637;DHT22;37713;53.254;6.460;2022-10-30T05:42:52;11.50;99.90
51637;DHT22;37713;53.254;6.460;2022-10-30T05:45:19;11.60;99.90
51637;DHT22;37713;53.254;6.460;2022-10-30T05:47:59;11.50;99.90
51637;DHT22;37713;53.254;6.460;2022-10-30T05:50:26;11.40;99.90
51637;DHT22;37713;53.254;6.460;2022-10-30T05:52:59;11.50;99.90
51637;DHT22;37713;53.254;6.460;2022-10-30T05:55:26;11.30;99.90
51637;DHT22;37713;53.254;6.460;2022-10-30T05:57:56;11.40;99.90
51637;DHT22;37713;53.254;6.460;2022-10-30T06:00:23;11.40;99.90
51637;DHT22;37713;53.254;6.460;2022-10-30T06:02:49;11.30;99.90
51637;DHT22;37713;53.254;6.460;2022-10-30T06:05:14;11.60;99.90
51637;DHT22;37713;53.254;6.460;2022-10-30T06:07:40;11.60;99.90
51637;DHT22;37713;53.254;6.460;2022-10-30T06:10:06;11.40;99.90
51637;DHT22;37713;53.254;6.460;2022-10-30T06:12:32;11.60;99.90
51637;DHT22;37713;53.254;6.460;2022-10-30T06:14:57;11.60;99.90
51637;DHT22;37713;53.254;6.460;2022-10-30T06:17:23;11.70;99.90
51637;DHT22;37713;53.254;6.460;2022-10-30T06:19:49;11.70;99.90
51637;DHT22;37713;53.254;6.460;2022-10-30T06:22:15;11.60;99.90
51637;DHT22;37713;53.254;6.460;2022-10-30T06:24:40;11.70;99.90
51637;DHT22;37713;53.254;6.460;2022-10-30T06:27:06;11.60;99.90
51637;DHT22;37713;53.254;6.460;2022-10-30T06:29:32;11.40;99.90
51637;DHT22;37713;53.254;6.460;2022-10-30T06:31:58;11.40;99.90
51637;DHT22;37713;53.254;6.460;2022-10-30T06:34:24;11.60;99.90
51637;DHT22;37713;53.254;6.460;2022-10-30T06:36:50;11.30;99.90
51637;DHT22;37713;53.254;6.460;2022-10-30T06:39:16;11.60;99.90
51637;DHT22;37713;53.254;6.460;2022-10-30T06:41:41;11.20;99.90
51637;DHT22;37713;53.254;6.460;2022-10-30T06:44:07;11.10;99.90
51637;DHT22;37713;53.254;6.460;2022-10-30T06:46:33;11.30;99.90
51637;DHT22;37713;53.254;6.460;2022-10-30T06:48:59;11.20;99.90
51637;DHT22;37713;53.254;6.460;2022-10-30T06:51:24;11.50;99.90
51637;DHT22;37713;53.254;6.460;2022-10-30T06:53:50;11.50;99.90
51637;DHT22;37713;53.254;6.460;2022-10-30T06:56:16;11.30;99.90
51637;DHT22;37713;53.254;6.460;2022-10-30T06:58:42;11.60;99.90
51637;DHT22;37713;53.254;6.460;2022-10-30T07:01:08;11.30;99.90
51637;DHT22;37713;53.254;6.460;2022-10-30T07:03:34;11.40;99.90
51637;DHT22;37713;53.254;6.460;2022-10-30T07:06:00;11.60;99.90
51637;DHT22;37713;53.254;6.460;2022-10-30T07:08:26;11.50;99.90
51637;DHT22;37713;53.254;6.460;2022-10-30T07:10:54;11.50;99.90
51637;DHT22;37713;53.254;6.460;2022-10-30T07:13:20;11.50;99.90
51637;DHT22;37713;53.254;6.460;2022-10-30T07:15:46;11.30;99.90
51637;DHT22;37713;53.254;6.460;2022-10-30T07:18:11;11.50;99.90
51637;DHT22;37713;53.254;6.460;2022-10-30T07:20:37;11.40;99.90
51637;DHT22;37713;53.254;6.460;2022-10-30T07:23:03;11.40;99.90
51637;DHT22;37713;53.254;6.460;2022-10-30T07:25:29;11.30;99.90
51637;DHT22;37713;53.254;6.460;2022-10-30T07:27:56;11.70;99.90
51637;DHT22;37713;53.254;6.460;2022-10-30T07:30:24;11.50;99.90
51637;DHT22;37713;53.254;6.460;2022-10-30T07:33:01;11.80;99.90
51637;DHT22;37713;53.254;6.460;2022-10-30T07:35:27;11.90;99.90
51637;DHT22;37713;53.254;6.460;2022-10-30T07:37:53;11.50;99.90
51637;DHT22;37713;53.254;6.460;2022-10-30T07:40:19;11.50;99.90
51637;DHT22;37713;53.254;6.460;2022-10-30T07:42:45;11.80;99.90
51637;DHT22;37713;53.254;6.460;2022-10-30T07:45:11;11.90;99.90
51637;DHT22;37713;53.254;6.460;2022-10-30T07:47:41;11.90;99.90
51637;DHT22;37713;53.254;6.460;2022-10-30T07:50:09;11.70;99.90
51637;DHT22;37713;53.254;6.460;2022-10-30T07:52:35;11.70;99.90
51637;DHT22;37713;53.254;6.460;2022-10-30T07:55:00;12.10;99.90
51637;DHT22;37713;53.254;6.460;2022-10-30T07:57:26;12.10;99.90
51637;DHT22;37713;53.254;6.460;2022-10-30T07:59:55;11.90;99.90
51637;DHT22;37713;53.254;6.460;2022-10-30T08:02:20;12.30;99.90
51637;DHT22;37713;53.254;6.460;2022-10-30T08:04:46;12.20;99.90
51637;DHT22;37713;53.254;6.460;2022-10-30T08:07:12;12.40;99.90
51637;DHT22;37713;53.254;6.460;2022-10-30T08:09:37;12.20;99.90
51637;DHT22;37713;53.254;6.460;2022-10-30T08:12:03;12.30;99.90
51637;DHT22;37713;53.254;6.460;2022-10-30T08:14:29;12.30;99.90
51637;DHT22;37713;53.254;6.460;2022-10-30T08:16:55;12.50;99.90
51637;DHT22;37713;53.254;6.460;2022-10-30T08:19:21;12.70;99.90
51637;DHT22;37713;53.254;6.460;2022-10-30T08:21:46;12.40;99.90
51637;DHT22;37713;53.254;6.460;2022-10-30T08:24:12;12.80;99.90
51637;DHT22;37713;53.254;6.460;2022-10-30T08:26:38;12.90;99.90
51637;DHT22;37713;53.254;6.460;2022-10-30T08:29:03;12.80;99.90
51637;DHT22;37713;53.254;6.460;2022-10-30T08:31:29;13.00;99.90
51637;DHT22;37713;53.254;6.460;2022-10-30T08:33:55;12.70;99.90
51637;DHT22;37713;53.254;6.460;2022-10-30T08:36:21;13.20;99.90
51637;DHT22;37713;53.254;6.460;2022-10-30T08:38:46;13.10;99.90
51637;DHT22;37713;53.254;6.460;2022-10-30T08:41:12;12.90;99.90
51637;DHT22;37713;53.254;6.460;2022-10-30T08:43:38;13.30;99.90
51637;DHT22;37713;53.254;6.460;2022-10-30T08:46:06;13.30;99.90
51637;DHT22;37713;53.254;6.460;2022-10-30T08:48:31;13.20;99.90
51637;DHT22;37713;53.254;6.460;2022-10-30T08:50:58;13.30;99.90
51637;DHT22;37713;53.254;6.460;2022-10-30T08:53:26;13.70;99.90
51637;DHT22;37713;53.254;6.460;2022-10-30T08:55:52;13.60;99.90
51637;DHT22;37713;53.254;6.460;2022-10-30T08:58:18;13.90;99.90
51637;DHT22;37713;53.254;6.460;2022-10-30T09:00:44;13.60;99.90
51637;DHT22;37713;53.254;6.460;2022-10-30T09:03:09;13.90;99.90
51637;DHT22;37713;53.254;6.460;2022-10-30T09:05:38;14.10;99.90
51637;DHT22;37713;53.254;6.460;2022-10-30T09:08:04;14.20;99.90
51637;DHT22;37713;53.254;6.460;2022-10-30T09:10:30;14.20;99.90
51637;DHT22;37713;53.254;6.460;2022-10-30T09:12:57;14.10;99.90
51637;DHT22;37713;53.254;6.460;2022-10-30T09:15:24;14.10;99.90
51637;DHT22;37713;53.254;6.460;2022-10-30T09:17:58;14.40;99.90
51637;DHT22;37713;53.254;6.460;2022-10-30T09:20:24;14.50;99.90
51637;DHT22;37713;53.254;6.460;2022-10-30T09:22:50;14.70;99.90
51637;DHT22;37713;53.254;6.460;2022-10-30T09:25:16;14.80;99.90
51637;DHT22;37713;53.254;6.460;2022-10-30T09:27:42;14.50;99.90
51637;DHT22;37713;53.254;6.460;2022-10-30T09:30:08;14.80;99.90
51637;DHT22;37713;53.254;6.460;2022-10-30T09:32:34;14.90;99.90
51637;DHT22;37713;53.254;6.460;2022-10-30T09:35:00;14.70;99.90
51637;DHT22;37713;53.254;6.460;2022-10-30T09:37:26;14.90;99.90
51637;DHT22;37713;53.254;6.460;2022-10-30T09:39:52;15.10;99.90
51637;DHT22;37713;53.254;6.460;2022-10-30T09:42:41;15.10;99.90
51637;DHT22;37713;53.254;6.460;2022-10-30T09:48:06;15.30;99.90
51637;DHT22;37713;53.254;6.460;2022-10-30T09:56:30;15.50;99.90
51637;DHT22;37713;53.254;6.460;2022-10-30T10:04:47;15.50;99.90
51637;DHT22;37713;53.254;6.460;2022-10-30T10:07:20;15.80;99.90
51637;DHT22;37713;53.254;6.460;2022-10-30T10:09:49;15.50;99.90
51637;DHT22;37713;53.254;6.460;2022-10-30T10:14:52;15.70;99.90
51637;DHT22;37713;53.254;6.460;2022-10-30T10:17:32;15.60;99.90
51637;DHT22;37713;53.254;6.460;2022-10-30T10:20:00;15.70;99.90
51637;DHT22;37713;53.254;6.460;2022-10-30T10:22:37;16.00;99.90
51637;DHT22;37713;53.254;6.460;2022-10-30T10:25:08;16.00;99.90
51637;DHT22;37713;53.254;6.460;2022-10-30T10:30:46;16.10;99.90
51637;DHT22;37713;53.254;6.460;2022-10-30T10:39:11;16.30;99.90
51637;DHT22;37713;53.254;6.460;2022-10-30T10:41:57;16.40;99.90
51637;DHT22;37713;53.254;6.460;2022-10-30T10:44:37;16.50;99.90
51637;DHT22;37713;53.254;6.460;2022-10-30T10:52:50;16.60;99.90
51637;DHT22;37713;53.254;6.460;2022-10-30T10:55:19;16.50;99.90
51637;DHT22;37713;53.254;6.460;2022-10-30T10:57:46;16.60;99.90
51637;DHT22;37713;53.254;6.460;2022-10-30T11:00:18;16.70;99.90
51637;DHT22;37713;53.254;6.460;2022-10-30T11:05:33;16.60;99.90
51637;DHT22;37713;53.254;6.460;2022-10-30T11:11:00;16.90;99.90
51637;DHT22;37713;53.254;6.460;2022-10-30T11:13:36;16.80;99.90
51637;DHT22;37713;53.254;6.460;2022-10-30T11:16:20;16.80;99.90
51637;DHT22;37713;53.254;6.460;2022-10-30T11:18:59;16.90;99.90
51637;DHT22;37713;53.254;6.460;2022-10-30T11:21:26;17.00;99.90
51637;DHT22;37713;53.254;6.460;2022-10-30T11:23:53;17.20;99.90
51637;DHT22;37713;53.254;6.460;2022-10-30T11:28:48;17.40;99.90
51637;DHT22;37713;53.254;6.460;2022-10-30T11:31:19;17.50;99.90
51637;DHT22;37713;53.254;6.460;2022-10-30T11:33:46;17.60;99.90
51637;DHT22;37713;53.254;6.460;2022-10-30T11:36:17;17.60;99.90
51637;DHT22;37713;53.254;6.460;2022-10-30T11:38:44;17.60;99.90
51637;DHT22;37713;53.254;6.460;2022-10-30T11:41:10;17.60;99.90
51637;DHT22;37713;53.254;6.460;2022-10-30T11:43:38;17.80;99.90
51637;DHT22;37713;53.254;6.460;2022-10-30T11:46:07;17.70;99.90
51637;DHT22;37713;53.254;6.460;2022-10-30T11:48:43;17.80;99.90
51637;DHT22;37713;53.254;6.460;2022-10-30T11:51:10;17.90;99.90
51637;DHT22;37713;53.254;6.460;2022-10-30T11:53:46;17.90;99.90
51637;DHT22;37713;53.254;6.460;2022-10-30T11:56:18;17.90;99.90
51637;DHT22;37713;53.254;6.460;2022-10-30T11:58:50;18.00;99.90
51637;DHT22;37713;53.254;6.460;2022-10-30T12:01:27;18.00;99.90
51637;DHT22;37713;53.254;6.460;2022-10-30T12:03:54;18.00;99.90
51637;DHT22;37713;53.254;6.460;2022-10-30T12:11:34;18.20;99.90
51637;DHT22;37713;53.254;6.460;2022-10-30T12:14:01;18.30;99.90
51637;DHT22;37713;53.254;6.460;2022-10-30T12:16:27;18.30;99.90
51637;DHT22;37713;53.254;6.460;2022-10-30T12:19:03;18.30;99.90
51637;DHT22;37713;53.254;6.460;2022-10-30T12:21:38;18.40;99.90
51637;DHT22;37713;53.254;6.460;2022-10-30T12:24:10;18.30;99.90
51637;DHT22;37713;53.254;6.460;2022-10-30T12:26:37;18.30;99.90
51637;DHT22;37713;53.254;6.460;2022-10-30T12:29:11;18.40;99.90
51637;DHT22;37713;53.254;6.460;2022-10-30T12:32:06;18.40;99.90
51637;DHT22;37713;53.254;6.460;2022-10-30T12:34:56;18.40;99.90
51637;DHT22;37713;53.254;6.460;2022-10-30T12:37:42;18.40;99.90
51637;DHT22;37713;53.254;6.460;2022-10-30T12:40:25;18.40;99.90
51637;DHT22;37713;53.254;6.460;2022-10-30T12:45:42;18.50;99.90
51637;DHT22;37713;53.254;6.460;2022-10-30T12:48:34;18.50;99.90
51637;DHT22;37713;53.254;6.460;2022-10-30T12:54:12;18.30;99.90
51637;DHT22;37713;53.254;6.460;2022-10-30T12:56:43;18.40;99.90
51637;DHT22;37713;53.254;6.460;2022-10-30T12:59:35;18.30;99.90
51637;DHT22;37713;53.254;6.460;2022-10-30T13:02:28;18.30;99.90
51637;DHT22;37713;53.254;6.460;2022-10-30T13:05:04;18.30;99.90
51637;DHT22;37713;53.254;6.460;2022-10-30T13:07:37;18.20;99.90
51637;DHT22;37713;53.254;6.460;2022-10-30T13:10:21;18.20;99.90
51637;DHT22;37713;53.254;6.460;2022-10-30T13:12:52;18.30;99.90
51637;DHT22;37713;53.254;6.460;2022-10-30T13:15:43;18.30;99.90
51637;DHT22;37713;53.254;6.460;2022-10-30T13:18:14;18.30;99.90
51637;DHT22;37713;53.254;6.460;2022-10-30T13:20:45;18.40;99.90
51637;DHT22;37713;53.254;6.460;2022-10-30T13:23:20;18.40;99.90
51637;DHT22;37713;53.254;6.460;2022-10-30T13:28:42;18.40;99.90
51637;DHT22;37713;53.254;6.460;2022-10-30T13:31:17;18.40;99.90
51637;DHT22;37713;53.254;6.460;2022-10-30T13:36:45;18.40;99.90
51637;DHT22;37713;53.254;6.460;2022-10-30T13:48:05;18.50;99.90
51637;DHT22;37713;53.254;6.460;2022-10-30T13:53:16;18.50;99.90
51637;DHT22;37713;53.254;6.460;2022-10-30T13:55:44;18.50;99.90
51637;DHT22;37713;53.254;6.460;2022-10-30T13:58:29;18.50;99.90
51637;DHT22;37713;53.254;6.460;2022-10-30T14:09:07;18.50;99.90
51637;DHT22;37713;53.254;6.460;2022-10-30T14:11:37;18.50;99.90
51637;DHT22;37713;53.254;6.460;2022-10-30T14:16:39;18.40;99.90
51637;DHT22;37713;53.254;6.460;2022-10-30T14:19:10;18.40;99.90
51637;DHT22;37713;53.254;6.460;2022-10-30T14:21:53;18.30;99.90
51637;DHT22;37713;53.254;6.460;2022-10-30T14:32:00;18.30;99.90
51637;DHT22;37713;53.254;6.460;2022-10-30T14:34:59;18.40;99.90
51637;DHT22;37713;53.254;6.460;2022-10-30T14:39:54;18.20;99.90
51637;DHT22;37713;53.254;6.460;2022-10-30T14:53:52;18.10;99.90
51637;DHT22;37713;53.254;6.460;2022-10-30T14:56:49;18.10;99.90
51637;DHT22;37713;53.254;6.460;2022-10-30T15:04:26;17.90;99.90
51637;DHT22;37713;53.254;6.460;2022-10-30T15:07:07;17.90;99.90
51637;DHT22;37713;53.254;6.460;2022-10-30T15:15:13;17.70;99.90
51637;DHT22;37713;53.254;6.460;2022-10-30T15:17:46;17.60;99.90
51637;DHT22;37713;53.254;6.460;2022-10-30T15:20:28;17.60;99.90
51637;DHT22;37713;53.254;6.460;2022-10-30T15:23:02;17.40;99.90
51637;DHT22;37713;53.254;6.460;2022-10-30T15:25:35;17.30;99.90
51637;DHT22;37713;53.254;6.460;2022-10-30T15:28:02;17.30;99.90
51637;DHT22;37713;53.254;6.460;2022-10-30T15:30:28;17.30;99.90
51637;DHT22;37713;53.254;6.460;2022-10-30T15:32:54;17.10;99.90
51637;DHT22;37713;53.254;6.460;2022-10-30T15:35:27;17.20;99.90
51637;DHT22;37713;53.254;6.460;2022-10-30T15:37:59;17.10;99.90
51637;DHT22;37713;53.254;6.460;2022-10-30T15:40:27;17.00;99.90
51637;DHT22;37713;53.254;6.460;2022-10-30T15:42:53;16.90;99.90
51637;DHT22;37713;53.254;6.460;2022-10-30T15:45:32;16.90;99.90
51637;DHT22;37713;53.254;6.460;2022-10-30T15:48:05;16.70;99.90
51637;DHT22;37713;53.254;6.460;2022-10-30T15:50:34;16.60;99.90
51637;DHT22;37713;53.254;6.460;2022-10-30T15:53:02;16.70;99.90
51637;DHT22;37713;53.254;6.460;2022-10-30T15:55:30;16.60;99.90
51637;DHT22;37713;53.254;6.460;2022-10-30T15:57:59;16.40;99.90
51637;DHT22;37713;53.254;6.460;2022-10-30T16:00:29;16.40;99.90
51637;DHT22;37713;53.254;6.460;2022-10-30T16:03:13;16.40;99.90
51637;DHT22;37713;53.254;6.460;2022-10-30T16:05:40;16.30;99.90
51637;DHT22;37713;53.254;6.460;2022-10-30T16:08:22;16.20;99.90
51637;DHT22;37713;53.254;6.460;2022-10-30T16:10:51;16.30;99.90
51637;DHT22;37713;53.254;6.460;2022-10-30T16:13:22;16.00;99.90
51637;DHT22;37713;53.254;6.460;2022-10-30T16:15:49;16.00;99.90
51637;DHT22;37713;53.254;6.460;2022-10-30T16:20:49;15.90;99.90
51637;DHT22;37713;53.254;6.460;2022-10-30T16:23:16;15.90;99.90
51637;DHT22;37713;53.254;6.460;2022-10-30T16:25:43;15.90;99.90
51637;DHT22;37713;53.254;6.460;2022-10-30T16:28:33;15.80;99.90
51637;DHT22;37713;53.254;6.460;2022-10-30T16:31:01;15.70;99.90
51637;DHT22;37713;53.254;6.460;2022-10-30T16:33:29;15.60;99.90
51637;DHT22;37713;53.254;6.460;2022-10-30T16:35:55;15.70;99.90
51637;DHT22;37713;53.254;6.460;2022-10-30T16:38:23;15.60;99.90
51637;DHT22;37713;53.254;6.460;2022-10-30T16:40:50;15.50;99.90
51637;DHT22;37713;53.254;6.460;2022-10-30T16:43:28;15.20;99.90
51637;DHT22;37713;53.254;6.460;2022-10-30T16:45:57;15.40;99.90
51637;DHT22;37713;53.254;6.460;2022-10-30T16:48:33;15.30;99.90
51637;DHT22;37713;53.254;6.460;2022-10-30T16:51:01;15.00;99.90
51637;DHT22;37713;53.254;6.460;2022-10-30T16:53:27;15.20;99.90
51637;DHT22;37713;53.254;6.460;2022-10-30T16:55:55;15.00;99.90
51637;DHT22;37713;53.254;6.460;2022-10-30T16:58:25;15.10;99.90
51637;DHT22;37713;53.254;6.460;2022-10-30T17:00:53;15.00;99.90
51637;DHT22;37713;53.254;6.460;2022-10-30T17:03:23;15.10;99.90
51637;DHT22;37713;53.254;6.460;2022-10-30T17:06:05;14.90;99.90
51637;DHT22;37713;53.254;6.460;2022-10-30T17:08:35;15.00;99.90
51637;DHT22;37713;53.254;6.460;2022-10-30T17:11:04;15.00;99.90
51637;DHT22;37713;53.254;6.460;2022-10-30T17:16:27;15.00;99.90
51637;DHT22;37713;53.254;6.460;2022-10-30T17:18:56;14.90;99.90
51637;DHT22;37713;53.254;6.460;2022-10-30T17:21:41;14.90;99.90
51637;DHT22;37713;53.254;6.460;2022-10-30T17:24:21;15.00;99.90
51637;DHT22;37713;53.254;6.460;2022-10-30T17:27:01;15.10;99.90
51637;DHT22;37713;53.254;6.460;2022-10-30T17:32:05;14.80;99.90
51637;DHT22;37713;53.254;6.460;2022-10-30T17:34:36;14.90;99.90
51637;DHT22;37713;53.254;6.460;2022-10-30T17:37:02;14.80;99.90
51637;DHT22;37713;53.254;6.460;2022-10-30T17:39:28;14.70;99.90
51637;DHT22;37713;53.254;6.460;2022-10-30T17:41:56;14.70;99.90
51637;DHT22;37713;53.254;6.460;2022-10-30T17:44:23;14.70;99.90
51637;DHT22;37713;53.254;6.460;2022-10-30T17:46:49;15.00;99.90
51637;DHT22;37713;53.254;6.460;2022-10-30T17:49:29;15.00;99.90
51637;DHT22;37713;53.254;6.460;2022-10-30T17:51:56;14.80;99.90
51637;DHT22;37713;53.254;6.460;2022-10-30T17:54:22;15.00;99.90
51637;DHT22;37713;53.254;6.460;2022-10-30T17:56:48;15.00;99.90
51637;DHT22;37713;53.254;6.460;2022-10-30T17:59:14;15.00;99.90
51637;DHT22;37713;53.254;6.460;2022-10-30T18:01:40;14.70;99.90
51637;DHT22;37713;53.254;6.460;2022-10-30T18:04:14;14.70;99.90